Time;durP1;ratioP1;P1;durP2;ratioP2;P2;SDS_P1;SDS_P2;PMS_P1;PMS_P2;Temp;Humidity;BMP_temperature;BMP_pressure;BME280_temperature;BME280_humidity;BME280_pressure;Samples;Min_cycle;Max_cycle;Signal;HPM_P1;HPM_P2
2023/08/10 00:00:34;;;;;;;4.28;1.58;;;12.80;99.90;;;;;;5075384;28;20051;-74
2023/08/10 00:02:59;;;;;;;2.85;1.38;;;12.80;99.90;;;;;;5074445;28;20048;-74
2023/08/10 00:05:25;;;;;;;4.55;1.40;;;12.80;99.90;;;;;;5075366;28;20137;-74
2023/08/10 00:07:51;;;;;;;3.22;1.27;;;12.80;99.90;;;;;;5057859;28;20044;-75
2023/08/10 00:10:17;;;;;;;4.88;1.58;;;12.80;99.90;;;;;;5074689;28;20087;-75
2023/08/10 00:12:42;;;;;;;5.80;1.40;;;12.80;99.90;;;;;;5075760;28;20051;-74
2023/08/10 00:15:09;;;;;;;4.03;1.60;;;12.70;99.90;;;;;;5074794;28;20040;-75
2023/08/10 00:17:34;;;;;;;4.65;1.52;;;12.80;99.90;;;;;;5074829;28;20041;-75
2023/08/10 00:20:00;;;;;;;2.83;1.27;;;12.70;99.90;;;;;;5073508;28;20106;-74
2023/08/10 00:22:26;;;;;;;3.90;1.30;;;12.70;99.90;;;;;;5074272;28;20437;-74
2023/08/10 00:24:52;;;;;;;4.55;1.50;;;12.70;99.90;;;;;;5075475;28;20045;-74
2023/08/10 00:27:18;;;;;;;3.40;1.42;;;12.60;99.90;;;;;;5075344;28;20131;-75
2023/08/10 00:29:44;;;;;;;3.45;1.42;;;12.60;99.90;;;;;;5075008;28;20045;-75
2023/08/10 00:32:10;;;;;;;2.80;1.58;;;12.50;99.90;;;;;;5075002;28;20044;-76
2023/08/10 00:34:35;;;;;;;5.32;1.55;;;12.50;99.90;;;;;;5074998;28;20389;-76
2023/08/10 00:37:02;;;;;;;5.00;1.83;;;12.40;99.90;;;;;;5073431;28;20048;-76
2023/08/10 00:39:28;;;;;;;4.93;1.40;;;12.40;99.90;;;;;;5073462;28;20044;-75
2023/08/10 00:41:53;;;;;;;3.85;1.30;;;12.30;99.90;;;;;;5075003;28;20046;-75
2023/08/10 00:44:19;;;;;;;5.43;1.70;;;12.20;99.90;;;;;;5074445;28;20044;-75
2023/08/10 00:46:46;;;;;;;3.97;1.40;;;12.20;99.90;;;;;;5073539;28;20048;-76
2023/08/10 00:49:11;;;;;;;5.10;1.40;;;12.20;99.90;;;;;;5073390;28;20408;-75
2023/08/10 00:51:38;;;;;;;3.47;1.52;;;12.10;99.90;;;;;;5056332;28;20056;-75
2023/08/10 00:54:05;;;;;;;5.57;1.70;;;12.00;99.90;;;;;;5074380;28;20507;-75
2023/08/10 00:56:31;;;;;;;2.65;1.48;;;11.90;99.90;;;;;;5074463;28;20088;-77
2023/08/10 00:58:57;;;;;;;6.60;1.77;;;11.90;99.90;;;;;;5074569;28;20079;-74
2023/08/10 01:01:23;;;;;;;3.55;1.90;;;11.80;99.90;;;;;;5074264;28;20466;-74
2023/08/10 01:03:49;;;;;;;2.53;1.50;;;11.80;99.90;;;;;;5074352;28;20080;-74
2023/08/10 01:06:27;;;;;;;4.18;1.40;;;11.80;99.90;;;;;;5072958;28;20125;-74
2023/08/10 01:09:10;;;;;;;4.43;1.35;;;11.80;99.90;;;;;;5073294;28;20063;-74
2023/08/10 01:11:39;;;;;;;2.05;1.25;;;11.80;99.90;;;;;;5073076;28;20124;-74
2023/08/10 01:14:32;;;;;;;4.70;1.75;;;11.70;99.90;;;;;;5072647;28;20056;-74
2023/08/10 01:17:01;;;;;;;3.92;1.27;;;11.70;99.90;;;;;;5073168;28;20052;-74
2023/08/10 01:19:36;;;;;;;4.90;1.50;;;11.60;99.90;;;;;;5073831;28;20052;-74
2023/08/10 01:22:18;;;;;;;4.75;1.45;;;11.60;99.90;;;;;;5073141;28;20388;-74
2023/08/10 01:24:44;;;;;;;4.18;1.48;;;11.60;99.90;;;;;;5073813;28;20048;-74
2023/08/10 01:27:11;;;;;;;4.03;1.48;;;11.70;99.90;;;;;;5073979;28;20076;-74
2023/08/10 01:29:37;;;;;;;2.78;1.45;;;11.70;99.90;;;;;;5072334;28;20051;-74
2023/08/10 01:32:03;;;;;;;2.45;1.48;;;11.80;99.90;;;;;;5073358;28;20530;-74
2023/08/10 01:34:29;;;;;;;3.22;1.27;;;11.80;99.90;;;;;;5073787;28;20052;-74
2023/08/10 01:36:54;;;;;;;3.05;1.67;;;11.90;99.90;;;;;;5072344;28;20076;-73
2023/08/10 01:39:20;;;;;;;3.60;1.52;;;11.90;99.90;;;;;;5073176;28;20688;-73
2023/08/10 01:41:46;;;;;;;3.47;1.42;;;11.90;99.90;;;;;;5073653;28;20083;-73
2023/08/10 01:44:12;;;;;;;3.55;1.42;;;11.90;99.90;;;;;;5073635;28;20048;-73
2023/08/10 01:46:40;;;;;;;6.70;2.00;;;12.00;99.90;;;;;;5073609;28;20041;-73
2023/08/10 01:49:10;;;;;;;6.00;1.90;;;12.00;99.90;;;;;;5073534;28;20045;-73
2023/08/10 01:51:40;;;;;;;2.15;1.20;;;12.10;99.90;;;;;;5072862;28;20057;-73
2023/08/10 01:54:08;;;;;;;3.92;1.50;;;12.10;99.90;;;;;;5073363;28;20095;-73
2023/08/10 01:56:33;;;;;;;2.75;1.40;;;12.20;99.90;;;;;;5073378;28;20091;-74
2023/08/10 01:59:00;;;;;;;1.98;1.25;;;12.20;99.90;;;;;;5073354;28;20076;-74
2023/08/10 02:01:25;;;;;;;2.90;1.40;;;12.30;99.90;;;;;;5072243;28;20378;-74
2023/08/10 02:03:51;;;;;;;4.15;1.52;;;12.30;99.90;;;;;;5073286;28;20471;-74
2023/08/10 02:06:17;;;;;;;4.15;1.55;;;12.30;99.90;;;;;;5072124;28;20045;-74
2023/08/10 02:08:43;;;;;;;4.30;1.65;;;12.40;99.90;;;;;;5073146;28;20047;-74
2023/08/10 02:11:08;;;;;;;4.00;1.60;;;12.40;99.90;;;;;;5071695;28;20465;-74
2023/08/10 02:13:34;;;;;;;3.95;1.63;;;12.50;99.90;;;;;;5072945;28;20088;-74
2023/08/10 02:16:00;;;;;;;5.30;1.52;;;12.50;99.90;;;;;;5071898;28;20048;-74
2023/08/10 02:18:25;;;;;;;3.60;1.48;;;12.50;99.90;;;;;;5073070;28;20040;-74
2023/08/10 02:20:51;;;;;;;3.00;1.48;;;12.60;99.90;;;;;;5072961;28;20094;-74
2023/08/10 02:23:17;;;;;;;4.07;1.48;;;12.60;99.90;;;;;;5071947;28;20052;-74
2023/08/10 02:25:43;;;;;;;3.88;1.50;;;12.60;99.90;;;;;;5071904;28;20447;-75
2023/08/10 02:28:09;;;;;;;5.30;1.67;;;12.60;99.90;;;;;;5073003;28;20056;-75
2023/08/10 02:30:34;;;;;;;3.25;1.58;;;12.60;99.90;;;;;;5072592;28;20141;-75
2023/08/10 02:33:00;;;;;;;4.63;1.60;;;12.60;99.90;;;;;;5071925;28;20059;-75
2023/08/10 02:35:26;;;;;;;3.35;1.48;;;12.60;99.90;;;;;;5071767;28;20435;-75
2023/08/10 02:37:51;;;;;;;2.30;1.50;;;12.60;99.90;;;;;;5071490;28;20116;-75
2023/08/10 02:40:17;;;;;;;3.25;1.48;;;12.50;99.90;;;;;;5071284;28;20045;-75
2023/08/10 02:42:43;;;;;;;2.90;1.40;;;12.50;99.90;;;;;;5077086;28;20048;-75
2023/08/10 02:45:09;;;;;;;4.70;1.42;;;12.40;99.90;;;;;;5079384;28;20496;-75
2023/08/10 02:47:35;;;;;;;4.30;1.55;;;12.40;99.90;;;;;;5079637;28;20463;-75
2023/08/10 02:50:02;;;;;;;3.90;1.67;;;12.30;99.90;;;;;;5077663;28;20409;-76
2023/08/10 02:52:28;;;;;;;3.22;1.40;;;12.30;99.90;;;;;;5079204;28;20489;-76
2023/08/10 02:54:54;;;;;;;3.08;1.50;;;12.20;99.90;;;;;;5079175;28;20059;-76
2023/08/10 02:57:20;;;;;;;3.35;1.33;;;12.20;99.90;;;;;;5079079;28;20392;-75
2023/08/10 02:59:45;;;;;;;3.10;1.45;;;12.10;99.90;;;;;;5079534;28;20048;-75
2023/08/10 03:02:16;;;;;;;2.60;1.50;;;12.10;99.90;;;;;;5079205;28;20409;-73
2023/08/10 03:04:42;;;;;;;4.63;1.60;;;12.00;99.90;;;;;;5079048;28;20041;-74
2023/08/10 03:07:07;;;;;;;2.45;1.35;;;12.00;99.90;;;;;;5079105;28;20045;-74
2023/08/10 03:09:33;;;;;;;4.13;1.90;;;12.00;99.90;;;;;;5078684;28;20056;-75
2023/08/10 03:11:59;;;;;;;3.97;1.67;;;12.00;99.90;;;;;;5079138;28;20337;-75
2023/08/10 03:14:24;;;;;;;4.38;1.88;;;12.00;99.90;;;;;;5079515;28;20097;-75
2023/08/10 03:16:50;;;;;;;4.22;1.80;;;12.10;99.90;;;;;;5078643;28;20045;-74
2023/08/10 03:19:16;;;;;;;4.55;1.48;;;12.10;99.90;;;;;;5077718;28;20072;-75
2023/08/10 03:21:41;;;;;;;5.18;1.70;;;12.10;99.90;;;;;;5079376;28;20075;-75
2023/08/10 03:24:07;;;;;;;3.85;1.65;;;12.10;99.90;;;;;;5078977;28;20117;-75
2023/08/10 03:26:33;;;;;;;4.00;1.65;;;12.20;99.90;;;;;;5077874;28;20045;-74
2023/08/10 03:28:59;;;;;;;6.03;2.00;;;12.20;99.90;;;;;;5079069;28;20577;-74
2023/08/10 03:31:24;;;;;;;4.10;1.63;;;12.30;99.90;;;;;;5061305;28;20049;-75
2023/08/10 03:33:50;;;;;;;4.05;1.80;;;12.30;99.90;;;;;;5078855;28;20052;-74
2023/08/10 03:36:16;;;;;;;4.55;1.60;;;12.30;99.90;;;;;;5077534;28;20106;-75
2023/08/10 03:38:42;;;;;;;3.95;1.98;;;12.30;99.90;;;;;;5078621;28;20499;-74
2023/08/10 03:41:07;;;;;;;4.13;2.55;;;12.30;99.90;;;;;;5078491;28;20481;-74
2023/08/10 03:43:33;;;;;;;2.50;1.67;;;12.30;99.90;;;;;;5078938;28;20050;-74
2023/08/10 03:46:02;;;;;;;4.15;2.00;;;12.40;99.90;;;;;;5077993;28;20436;-74
2023/08/10 03:48:27;;;;;;;2.38;1.65;;;12.40;99.90;;;;;;5078929;28;20043;-73
2023/08/10 03:50:53;;;;;;;5.82;2.33;;;12.40;99.90;;;;;;5078495;28;20053;-73
2023/08/10 03:53:19;;;;;;;3.03;1.70;;;12.30;99.90;;;;;;5075238;28;20127;-74
2023/08/10 03:55:44;;;;;;;3.63;1.98;;;12.40;99.90;;;;;;5075882;28;20481;-74
2023/08/10 03:58:10;;;;;;;4.28;1.85;;;12.40;99.90;;;;;;5075497;28;20444;-73
2023/08/10 04:00:36;;;;;;;3.72;1.83;;;12.40;99.90;;;;;;5074171;28;20481;-74
2023/08/10 04:03:01;;;;;;;3.53;1.70;;;12.40;99.90;;;;;;5075672;28;20435;-74
2023/08/10 04:05:27;;;;;;;5.90;2.13;;;12.40;99.90;;;;;;5057486;28;20131;-74
2023/08/10 04:07:53;;;;;;;3.10;1.80;;;12.40;99.90;;;;;;5075431;28;20082;-74
2023/08/10 04:10:19;;;;;;;4.15;1.80;;;12.40;99.90;;;;;;5074246;28;20676;-73
2023/08/10 04:12:45;;;;;;;5.93;2.00;;;12.40;99.90;;;;;;5073386;28;20144;-73
2023/08/10 04:15:11;;;;;;;2.88;1.55;;;12.40;99.90;;;;;;5075230;28;20127;-73
2023/08/10 04:17:37;;;;;;;3.78;2.22;;;12.40;99.90;;;;;;5075315;28;20393;-73
2023/08/10 04:20:09;;;;;;;4.18;1.60;;;12.40;99.90;;;;;;5075172;28;20041;-73
2023/08/10 04:22:36;;;;;;;3.60;1.90;;;12.50;99.90;;;;;;5075194;28;20102;-73
2023/08/10 04:25:03;;;;;;;2.92;1.90;;;12.50;99.90;;;;;;5073589;28;20123;-73
2023/08/10 04:27:29;;;;;;;3.75;1.60;;;12.50;99.90;;;;;;5073792;28;20048;-73
2023/08/10 04:29:54;;;;;;;4.55;1.90;;;12.60;99.90;;;;;;5075062;28;20114;-74
2023/08/10 04:32:20;;;;;;;4.45;2.15;;;12.60;99.90;;;;;;5075001;28;20127;-74
2023/08/10 04:34:46;;;;;;;3.13;1.73;;;12.60;99.90;;;;;;5074966;28;20044;-75
2023/08/10 04:37:12;;;;;;;4.40;2.08;;;12.60;99.90;;;;;;5073603;28;20070;-74
2023/08/10 04:39:38;;;;;;;2.65;1.65;;;12.60;99.90;;;;;;5073074;28;20084;-74
2023/08/10 04:42:03;;;;;;;3.13;1.80;;;12.60;99.90;;;;;;5073870;28;20524;-74
2023/08/10 04:44:29;;;;;;;2.85;1.70;;;12.60;99.90;;;;;;5074423;28;20045;-74
2023/08/10 04:46:55;;;;;;;2.88;2.00;;;12.60;99.90;;;;;;5040427;28;20094;-73
2023/08/10 04:49:21;;;;;;;4.60;1.85;;;12.60;99.90;;;;;;5074558;28;20058;-73
2023/08/10 04:51:46;;;;;;;4.30;2.13;;;12.70;99.90;;;;;;5074283;28;20063;-73
2023/08/10 04:54:12;;;;;;;4.22;2.15;;;12.70;99.90;;;;;;5073319;28;20048;-73
2023/08/10 04:56:38;;;;;;;4.80;1.80;;;12.70;99.90;;;;;;5073364;28;20076;-73
2023/08/10 04:59:04;;;;;;;4.05;1.63;;;12.80;99.90;;;;;;5072954;28;20563;-73
2023/08/10 05:01:30;;;;;;;4.55;1.77;;;12.80;99.90;;;;;;5073126;28;20052;-74
2023/08/10 05:03:56;;;;;;;3.45;1.58;;;12.80;99.90;;;;;;5073237;28;20090;-74
2023/08/10 05:06:22;;;;;;;4.90;2.28;;;12.90;99.90;;;;;;5074155;28;20079;-74
2023/08/10 05:08:47;;;;;;;5.65;2.28;;;12.90;99.90;;;;;;5073162;28;20088;-75
2023/08/10 05:11:13;;;;;;;3.95;2.22;;;13.00;99.90;;;;;;5072499;28;20049;-74
2023/08/10 05:13:40;;;;;;;4.20;1.98;;;13.00;99.90;;;;;;5074009;28;20132;-72
2023/08/10 05:16:05;;;;;;;3.20;1.85;;;13.00;99.90;;;;;;5074200;28;20040;-73
2023/08/10 05:18:31;;;;;;;6.35;2.40;;;13.10;99.90;;;;;;5072834;28;20051;-74
2023/08/10 05:21:01;;;;;;;4.25;2.00;;;13.10;99.90;;;;;;5073970;28;20044;-74
2023/08/10 05:23:27;;;;;;;3.17;1.88;;;13.20;99.90;;;;;;5056516;28;20129;-74
2023/08/10 05:25:52;;;;;;;3.47;2.47;;;13.20;99.90;;;;;;5073142;28;20079;-74
2023/08/10 05:28:18;;;;;;;2.90;1.90;;;13.20;99.90;;;;;;5073656;28;20037;-73
2023/08/10 05:30:44;;;;;;;3.92;1.90;;;13.20;99.90;;;;;;5073854;28;20055;-74
2023/08/10 05:33:10;;;;;;;4.85;2.13;;;13.30;99.90;;;;;;5073866;28;20182;-73
2023/08/10 05:35:36;;;;;;;3.40;2.13;;;13.30;99.90;;;;;;5072721;28;20397;-74
2023/08/10 05:38:02;;;;;;;4.60;2.20;;;13.40;99.90;;;;;;5072705;28;20155;-74
2023/08/10 05:40:28;;;;;;;4.20;2.30;;;13.40;99.90;;;;;;5073186;28;20554;-74
2023/08/10 05:42:53;;;;;;;4.35;2.20;;;13.50;99.90;;;;;;5072506;28;20435;-74
2023/08/10 05:45:19;;;;;;;3.42;1.90;;;13.50;99.90;;;;;;5073569;28;20481;-74
2023/08/10 05:47:46;;;;;;;4.10;1.98;;;13.60;99.90;;;;;;5073184;28;20080;-74
2023/08/10 05:50:12;;;;;;;6.65;2.38;;;13.60;99.90;;;;;;5072539;28;20071;-74
2023/08/10 05:52:38;;;;;;;4.55;2.28;;;13.70;99.90;;;;;;5071847;28;20060;-74
2023/08/10 05:55:05;;;;;;;3.50;1.90;;;13.70;99.90;;;;;;5072190;28;20122;-74
2023/08/10 05:57:31;;;;;;;2.75;1.80;;;13.80;99.90;;;;;;5073409;28;20564;-75
2023/08/10 05:59:56;;;;;;;4.75;2.10;;;13.90;99.90;;;;;;5073484;28;20132;-73
2023/08/10 06:02:22;;;;;;;2.80;1.67;;;13.90;99.90;;;;;;5073348;28;20132;-74
2023/08/10 06:04:49;;;;;;;3.60;1.90;;;14.00;99.90;;;;;;5073126;28;20045;-74
2023/08/10 06:07:15;;;;;;;3.35;1.73;;;14.00;99.90;;;;;;5072041;28;20045;-74
2023/08/10 06:09:41;;;;;;;4.20;2.10;;;14.10;99.90;;;;;;5055104;28;20087;-71
2023/08/10 06:12:07;;;;;;;4.72;2.13;;;14.10;99.90;;;;;;5073254;28;20075;-71
2023/08/10 06:14:33;;;;;;;3.58;1.60;;;14.20;99.90;;;;;;5072140;28;20044;-71
2023/08/10 06:16:59;;;;;;;3.90;1.80;;;14.20;99.90;;;;;;5072469;28;20455;-71
2023/08/10 06:19:25;;;;;;;3.33;1.80;;;14.30;99.90;;;;;;5072873;28;20561;-70
2023/08/10 06:21:51;;;;;;;3.90;1.83;;;14.30;99.90;;;;;;5072039;28;20048;-71
2023/08/10 06:24:17;;;;;;;2.97;1.50;;;14.30;99.90;;;;;;5073159;28;20404;-70
2023/08/10 06:26:43;;;;;;;3.97;1.60;;;14.40;99.90;;;;;;5071996;28;20477;-71
2023/08/10 06:29:09;;;;;;;2.80;1.70;;;14.50;99.90;;;;;;5072882;28;20113;-71
2023/08/10 06:31:35;;;;;;;4.18;1.75;;;14.50;99.90;;;;;;5073009;28;20105;-71
2023/08/10 06:34:02;;;;;;;3.42;1.65;;;14.60;99.90;;;;;;5055133;28;20450;-71
2023/08/10 06:36:28;;;;;;;3.40;1.60;;;14.60;99.90;;;;;;5072456;28;20393;-71
2023/08/10 06:38:54;;;;;;;2.30;1.38;;;14.60;99.90;;;;;;5072731;28;20048;-71
2023/08/10 06:41:20;;;;;;;4.65;1.70;;;14.60;99.90;;;;;;5072447;28;20088;-70
2023/08/10 06:43:46;;;;;;;4.03;1.50;;;14.60;99.90;;;;;;5072810;28;20538;-71
2023/08/10 06:46:12;;;;;;;3.10;1.40;;;14.70;99.90;;;;;;5072939;28;20128;-71
2023/08/10 06:48:37;;;;;;;3.85;1.33;;;14.80;99.90;;;;;;5072795;28;20076;-71
2023/08/10 06:51:03;;;;;;;4.07;1.77;;;14.90;99.90;;;;;;5072458;28;20060;-71
2023/08/10 06:53:31;;;;;;;3.67;1.50;;;15.10;99.90;;;;;;5072663;28;20060;-71
2023/08/10 06:55:58;;;;;;;5.57;1.60;;;15.20;99.90;;;;;;5072664;28;20485;-72
2023/08/10 06:58:23;;;;;;;3.50;1.50;;;15.30;99.90;;;;;;5071620;28;20125;-71
2023/08/10 07:00:50;;;;;;;3.75;1.30;;;15.30;99.90;;;;;;5072642;28;20481;-71
2023/08/10 07:03:15;;;;;;;3.58;1.38;;;15.30;99.90;;;;;;5072550;28;20105;-71
2023/08/10 07:05:43;;;;;;;3.83;1.33;;;15.40;99.90;;;;;;5072233;28;20044;-70
2023/08/10 07:08:09;;;;;;;2.47;1.00;;;15.50;99.90;;;;;;5071528;28;20083;-71
2023/08/10 07:10:36;;;;;;;3.60;1.58;;;15.60;99.90;;;;;;5066620;28;20040;-70
2023/08/10 07:13:01;;;;;;;5.97;1.25;;;15.70;99.90;;;;;;5063638;28;20362;-74
2023/08/10 07:15:27;;;;;;;4.38;1.35;;;15.80;99.90;;;;;;5053882;28;20118;-76
2023/08/10 07:17:54;;;;;;;3.40;1.15;;;15.90;99.90;;;;;;5071347;28;20036;-74
2023/08/10 07:20:20;;;;;;;3.10;1.38;;;16.00;99.90;;;;;;5070318;28;20098;-71
2023/08/10 07:22:47;;;;;;;2.88;0.85;;;16.10;99.90;;;;;;5070610;28;20056;-71
2023/08/10 07:25:16;;;;;;;2.50;1.13;;;16.10;99.90;;;;;;5071089;28;20044;-70
2023/08/10 07:27:43;;;;;;;2.75;1.10;;;16.20;99.90;;;;;;5068743;28;20393;-71
2023/08/10 07:30:10;;;;;;;3.67;0.93;;;16.30;99.90;;;;;;5075137;28;20068;-73
2023/08/10 07:32:36;;;;;;;2.97;1.20;;;16.40;99.90;;;;;;5075478;28;20044;-73
2023/08/10 07:35:03;;;;;;;2.85;1.27;;;16.50;99.90;;;;;;5075587;28;20115;-72
2023/08/10 07:37:29;;;;;;;4.18;1.30;;;16.50;99.90;;;;;;5075317;28;20866;-73
2023/08/10 07:39:55;;;;;;;2.85;1.00;;;16.60;99.90;;;;;;5074809;28;20485;-73
2023/08/10 07:42:22;;;;;;;2.15;1.02;;;16.60;99.90;;;;;;5058078;28;20048;-73
2023/08/10 07:44:48;;;;;;;4.28;1.00;;;16.70;99.90;;;;;;5075525;28;20048;-74
2023/08/10 07:47:13;;;;;;;2.22;1.10;;;16.80;99.90;;;;;;5073773;28;20469;-76
2023/08/10 07:49:41;;;;;;;2.38;1.10;;;16.80;99.90;;;;;;5075223;28;20055;-73
2023/08/10 07:52:07;;;;;;;4.28;0.90;;;16.80;99.90;;;;;;5075507;28;20060;-72
2023/08/10 07:54:32;;;;;;;2.85;1.17;;;16.80;99.90;;;;;;5074442;28;20131;-74
2023/08/10 07:56:58;;;;;;;2.25;0.82;;;16.90;99.90;;;;;;5074867;28;20041;-72
2023/08/10 07:59:24;;;;;;;2.22;0.90;;;16.90;99.90;;;;;;5070879;28;20046;-72
2023/08/10 08:01:49;;;;;;;2.92;0.88;;;16.90;99.90;;;;;;5073228;28;20385;-73
2023/08/10 08:04:15;;;;;;;1.85;0.90;;;17.00;99.90;;;;;;5054792;28;20041;-74
2023/08/10 08:06:41;;;;;;;2.88;1.20;;;17.00;99.90;;;;;;5073632;28;20093;-72
2023/08/10 08:09:07;;;;;;;3.38;1.30;;;17.20;99.90;;;;;;5071229;28;20084;-72
2023/08/10 08:11:36;;;;;;;2.88;1.15;;;17.30;99.90;;;;;;5073517;28;20071;-72
2023/08/10 08:14:02;;;;;;;3.22;1.40;;;17.30;99.90;;;;;;5075109;28;20401;-73
2023/08/10 08:16:28;;;;;;;3.67;1.50;;;17.50;99.90;;;;;;5073298;28;20126;-73
2023/08/10 08:18:54;;;;;;;3.70;1.00;;;17.60;99.90;;;;;;5070951;28;20481;-74
2023/08/10 08:21:30;;;;;;;3.60;1.10;;;17.70;99.90;;;;;;5071365;28;20119;-78
2023/08/10 08:23:57;;;;;;;2.05;0.90;;;17.80;99.90;;;;;;5068324;28;20052;-71
2023/08/10 08:26:24;;;;;;;3.25;0.95;;;17.90;99.90;;;;;;5073027;28;20078;-70
2023/08/10 08:28:50;;;;;;;4.03;1.00;;;17.90;99.90;;;;;;5074848;28;20048;-71
2023/08/10 08:31:16;;;;;;;4.22;1.20;;;17.80;99.90;;;;;;5068223;28;20055;-72
2023/08/10 08:33:42;;;;;;;3.63;1.20;;;17.70;99.90;;;;;;5074485;28;20045;-71
2023/08/10 08:36:09;;;;;;;1.88;0.73;;;17.70;99.90;;;;;;5073320;28;20052;-72
2023/08/10 08:38:36;;;;;;;2.00;1.15;;;17.70;99.90;;;;;;5074020;28;20037;-71
2023/08/10 08:41:07;;;;;;;3.63;1.10;;;17.70;99.90;;;;;;5073646;28;20041;-72
2023/08/10 08:43:34;;;;;;;2.65;0.80;;;17.60;99.90;;;;;;5073616;28;20056;-71
2023/08/10 08:46:01;;;;;;;1.73;0.88;;;17.60;99.90;;;;;;5074079;28;20496;-70
2023/08/10 08:48:28;;;;;;;2.63;1.45;;;17.60;99.90;;;;;;5073817;28;20048;-70
2023/08/10 08:50:54;;;;;;;2.28;0.80;;;17.60;99.90;;;;;;5073811;28;20056;-71
2023/08/10 08:53:21;;;;;;;4.13;0.90;;;17.60;99.90;;;;;;5074055;28;20067;-71
2023/08/10 08:55:47;;;;;;;2.65;0.82;;;17.60;99.90;;;;;;5073130;28;20386;-71
2023/08/10 08:58:16;;;;;;;2.15;1.10;;;17.70;99.90;;;;;;5073815;28;20036;-71
2023/08/10 09:00:53;;;;;;;2.00;1.05;;;17.60;99.90;;;;;;5073698;28;20087;-71
2023/08/10 09:03:20;;;;;;;2.58;1.13;;;17.70;99.90;;;;;;5073015;28;20278;-70
2023/08/10 09:05:47;;;;;;;2.55;0.98;;;17.70;99.90;;;;;;5073071;28;20408;-75
2023/08/10 09:08:14;;;;;;;3.20;1.10;;;17.70;99.90;;;;;;5072510;28;20040;-71
2023/08/10 09:10:40;;;;;;;2.78;1.10;;;17.80;99.90;;;;;;5073404;28;20037;-72
2023/08/10 09:13:18;;;;;;;2.67;1.13;;;17.80;99.90;;;;;;5070353;28;20047;-75
2023/08/10 09:15:45;;;;;;;2.65;1.40;;;17.90;99.90;;;;;;5063882;28;20036;-72
2023/08/10 09:18:11;;;;;;;2.85;0.95;;;17.90;99.90;;;;;;5066261;28;20048;-73
2023/08/10 09:20:37;;;;;;;4.18;1.05;;;17.80;99.90;;;;;;5070887;28;20044;-72
2023/08/10 09:23:03;;;;;;;3.65;1.20;;;17.80;99.90;;;;;;5071820;28;20046;-73
2023/08/10 09:25:38;;;;;;;2.40;1.02;;;17.80;99.90;;;;;;5070908;28;20306;-73
2023/08/10 09:28:08;;;;;;;1.40;0.90;;;17.90;99.90;;;;;;5071256;28;20512;-74
2023/08/10 09:30:34;;;;;;;2.47;1.00;;;17.90;99.90;;;;;;5070829;28;20044;-73
2023/08/10 09:33:00;;;;;;;3.05;1.15;;;17.90;99.90;;;;;;5054544;28;20052;-73
2023/08/10 09:35:29;;;;;;;3.40;1.13;;;17.90;99.90;;;;;;5061034;28;20087;-71
2023/08/10 09:38:00;;;;;;;3.72;1.02;;;17.90;99.90;;;;;;5070461;28;20047;-73
2023/08/10 09:40:26;;;;;;;2.92;1.10;;;17.90;99.90;;;;;;5069972;28;20058;-73
2023/08/10 09:42:53;;;;;;;4.65;1.30;;;17.80;99.90;;;;;;5070688;28;20127;-72
2023/08/10 09:45:19;;;;;;;2.55;0.95;;;17.80;99.90;;;;;;5070062;28;20078;-70
2023/08/10 09:47:45;;;;;;;4.22;1.00;;;17.80;99.90;;;;;;5055755;28;20448;-73
2023/08/10 09:50:17;;;;;;;2.78;0.80;;;17.80;99.90;;;;;;5070909;28;20094;-73
2023/08/10 09:52:44;;;;;;;2.15;1.10;;;17.80;99.90;;;;;;5069657;28;20056;-71
2023/08/10 09:55:11;;;;;;;3.17;0.90;;;17.80;99.90;;;;;;5057298;28;20101;-71
2023/08/10 09:57:43;;;;;;;4.20;1.17;;;17.80;99.90;;;;;;5070385;28;20047;-71
2023/08/10 10:00:17;;;;;;;3.85;1.08;;;17.80;99.90;;;;;;5052838;28;20114;-70
2023/08/10 10:02:44;;;;;;;2.40;1.08;;;17.80;99.90;;;;;;5071268;28;20071;-71
2023/08/10 10:05:11;;;;;;;2.67;0.93;;;17.80;99.90;;;;;;5072738;28;20048;-71
2023/08/10 10:07:37;;;;;;;2.40;0.93;;;17.80;99.90;;;;;;5072354;28;20049;-72
2023/08/10 10:10:03;;;;;;;4.32;1.20;;;17.80;99.90;;;;;;5072432;28;20048;-71
2023/08/10 10:12:34;;;;;;;3.13;1.05;;;17.80;99.90;;;;;;5072768;28;20123;-71
2023/08/10 10:15:01;;;;;;;2.72;0.93;;;17.70;99.90;;;;;;5071533;28;20401;-70
2023/08/10 10:17:26;;;;;;;1.98;1.00;;;17.70;99.90;;;;;;5070971;28;20041;-73
2023/08/10 10:19:53;;;;;;;3.75;1.30;;;17.80;99.90;;;;;;5071087;28;20045;-73
2023/08/10 10:22:20;;;;;;;2.75;1.45;;;17.80;99.90;;;;;;5071492;28;20048;-73
2023/08/10 10:24:47;;;;;;;2.80;1.05;;;17.90;99.90;;;;;;5072809;28;20123;-72
2023/08/10 10:27:13;;;;;;;2.67;0.95;;;17.90;99.90;;;;;;5071494;28;20150;-70
2023/08/10 10:29:51;;;;;;;2.17;0.80;;;17.90;99.90;;;;;;5070956;28;20055;-72
2023/08/10 10:32:21;;;;;;;2.55;1.17;;;17.90;99.90;;;;;;5071233;28;20051;-71
2023/08/10 10:34:52;;;;;;;1.35;0.73;;;17.80;99.90;;;;;;5071448;28;20051;-70
2023/08/10 10:37:20;;;;;;;3.35;1.08;;;17.80;99.90;;;;;;5070133;28;20051;-71
2023/08/10 10:39:50;;;;;;;2.22;1.00;;;17.80;99.90;;;;;;5058767;28;20068;-72
2023/08/10 10:42:17;;;;;;;2.50;1.00;;;17.80;99.90;;;;;;5062035;28;20061;-70
2023/08/10 10:44:59;;;;;;;4.22;1.05;;;17.80;99.90;;;;;;5056186;28;20053;-69
2023/08/10 10:47:36;;;;;;;2.13;0.90;;;17.90;99.90;;;;;;5066648;28;20080;-71
2023/08/10 10:50:17;;;;;;;2.47;0.82;;;17.90;99.90;;;;;;5072152;28;20728;-70
2023/08/10 10:52:58;;;;;;;2.35;1.13;;;17.90;99.90;;;;;;5070402;28;20057;-71
2023/08/10 10:55:33;;;;;;;2.45;1.13;;;17.90;99.90;;;;;;5054407;28;20048;-70
2023/08/10 10:58:02;;;;;;;3.50;1.00;;;17.90;99.90;;;;;;5072410;28;20092;-71
2023/08/10 11:00:28;;;;;;;1.80;1.00;;;17.90;99.90;;;;;;5070710;28;20453;-71
2023/08/10 11:02:54;;;;;;;2.85;1.20;;;17.80;99.90;;;;;;5072601;28;20375;-74
2023/08/10 11:05:23;;;;;;;2.55;1.13;;;17.80;99.90;;;;;;5074478;28;20049;-73
2023/08/10 11:07:51;;;;;;;4.18;1.42;;;17.80;99.90;;;;;;5074718;28;20049;-72
2023/08/10 11:10:20;;;;;;;3.00;1.20;;;17.80;99.90;;;;;;5074459;28;20132;-72
2023/08/10 11:12:51;;;;;;;2.15;1.00;;;17.80;99.90;;;;;;5073969;28;20119;-71
2023/08/10 11:15:17;;;;;;;3.08;1.08;;;17.80;99.90;;;;;;5073845;28;20427;-71
2023/08/10 11:17:52;;;;;;;2.55;0.95;;;17.80;99.90;;;;;;5075569;28;20045;-71
2023/08/10 11:20:20;;;;;;;2.20;1.00;;;17.80;99.90;;;;;;5074578;28;20094;-71
2023/08/10 11:22:48;;;;;;;1.63;0.85;;;17.80;99.90;;;;;;5075759;28;20124;-71
2023/08/10 11:25:19;;;;;;;1.88;1.02;;;17.80;99.90;;;;;;5075946;28;20076;-73
2023/08/10 11:27:48;;;;;;;1.98;0.93;;;17.80;99.90;;;;;;5075574;28;20083;-71
2023/08/10 11:30:16;;;;;;;1.73;0.90;;;17.70;99.90;;;;;;5075381;28;20052;-72
2023/08/10 11:32:43;;;;;;;2.45;1.08;;;17.70;99.90;;;;;;5075487;28;20044;-73
2023/08/10 11:35:10;;;;;;;2.90;0.90;;;17.70;99.90;;;;;;5075684;28;20071;-71
2023/08/10 11:37:40;;;;;;;2.60;1.17;;;17.70;99.90;;;;;;5073931;28;20409;-72
2023/08/10 11:40:17;;;;;;;3.42;1.00;;;17.70;99.90;;;;;;5073905;28;20382;-73
2023/08/10 11:42:48;;;;;;;2.63;1.00;;;17.80;99.90;;;;;;5074194;28;20382;-70
2023/08/10 11:45:23;;;;;;;1.75;0.95;;;17.80;99.90;;;;;;5057713;28;20048;-72
2023/08/10 11:47:52;;;;;;;2.65;1.25;;;17.80;99.90;;;;;;5070310;28;20047;-73
2023/08/10 11:50:19;;;;;;;3.10;1.08;;;17.90;99.90;;;;;;5074143;28;20444;-73
2023/08/10 11:52:45;;;;;;;1.92;1.10;;;17.90;99.90;;;;;;5073326;28;20052;-72
2023/08/10 11:55:13;;;;;;;2.38;1.17;;;18.00;99.90;;;;;;5075100;28;20044;-72
2023/08/10 11:57:42;;;;;;;3.20;1.33;;;18.10;99.90;;;;;;5074166;28;20051;-72
2023/08/10 12:00:33;;;;;;;3.60;1.30;;;18.10;99.90;;;;;;5072774;28;20477;-72
2023/08/10 12:03:24;;;;;;;2.85;1.23;;;18.10;99.90;;;;;;5075166;28;20358;-72
2023/08/10 12:05:55;;;;;;;3.67;1.40;;;18.10;99.90;;;;;;5065223;28;20439;-71
2023/08/10 12:08:30;;;;;;;3.30;1.20;;;18.10;99.90;;;;;;5074046;28;20044;-70
2023/08/10 12:11:03;;;;;;;3.23;1.27;;;18.20;99.90;;;;;;5073490;28;20167;-72
2023/08/10 12:13:30;;;;;;;3.38;1.20;;;18.20;99.90;;;;;;5073274;28;20389;-73
2023/08/10 12:15:58;;;;;;;3.28;1.30;;;18.30;99.90;;;;;;5073087;28;20036;-72
2023/08/10 12:18:25;;;;;;;2.63;1.20;;;18.40;99.90;;;;;;5074464;28;20068;-71
2023/08/10 12:20:52;;;;;;;3.05;1.20;;;18.40;99.90;;;;;;5072998;28;20045;-72
2023/08/10 12:23:20;;;;;;;5.43;1.60;;;18.40;99.90;;;;;;5074531;28;20032;-72
2023/08/10 12:25:50;;;;;;;2.72;1.30;;;18.50;99.90;;;;;;5074907;28;20170;-73
2023/08/10 12:28:18;;;;;;;2.58;1.30;;;18.50;99.90;;;;;;5072660;28;20090;-70
2023/08/10 12:30:46;;;;;;;2.70;1.40;;;18.50;99.90;;;;;;5073405;28;20040;-73
2023/08/10 12:33:12;;;;;;;2.00;1.27;;;18.50;99.90;;;;;;5070035;28;20037;-73
2023/08/10 12:35:42;;;;;;;4.40;1.77;;;18.50;99.90;;;;;;5073450;28;20485;-71
2023/08/10 12:38:09;;;;;;;3.25;1.40;;;18.50;99.90;;;;;;5074480;28;20134;-73
2023/08/10 12:40:36;;;;;;;3.28;1.50;;;18.50;99.90;;;;;;5073295;28;20051;-72
2023/08/10 12:43:03;;;;;;;4.55;1.60;;;18.60;99.90;;;;;;5074062;28;20056;-72
2023/08/10 12:45:29;;;;;;;3.55;1.58;;;18.70;99.90;;;;;;5074814;28;20055;-71
2023/08/10 12:47:55;;;;;;;4.25;1.70;;;18.80;99.90;;;;;;5073315;28;20044;-73